createdAt,value
2019-02-23T00:00:28.792Z,102894.66
2019-02-23T00:01:32.552Z,102887.50
2019-02-23T00:02:36.120Z,102890.26
2019-02-23T00:03:39.617Z,102890.81
2019-02-23T00:04:43.100Z,102889.98
2019-02-23T00:05:46.608Z,102893.28
2019-02-23T00:06:50.185Z,102895.48
2019-02-23T00:07:53.690Z,102891.63
2019-02-23T00:08:57.267Z,102899.34
2019-02-23T00:10:00.815Z,102892.14
2019-02-23T00:11:04.456Z,102892.14
2019-02-23T00:12:07.986Z,102896.83
2019-02-23T00:13:11.527Z,102891.32
2019-02-23T00:14:15.038Z,102889.94
2019-02-23T00:15:18.598Z,102886.08
2019-02-23T00:16:22.271Z,102893.25
2019-02-23T00:17:25.807Z,102893.80
2019-02-23T00:18:29.361Z,102889.94
2019-02-23T00:19:32.975Z,102891.31
2019-02-23T00:20:36.556Z,102886.36
2019-02-23T00:21:40.170Z,102881.67
2019-02-23T00:22:43.765Z,102886.08
2019-02-23T00:23:47.333Z,102884.70
2019-02-23T00:24:50.878Z,102887.45
2019-02-23T00:25:54.394Z,102889.38
2019-02-23T00:26:58.025Z,102890.48
2019-02-23T00:28:01.594Z,102884.15
2019-02-23T00:29:05.184Z,102890.75
2019-02-23T00:30:08.904Z,102886.63
2019-02-23T00:31:12.418Z,102878.91
2019-02-23T00:32:15.916Z,102880.84
2019-02-23T00:33:19.418Z,102880.84
2019-02-23T00:34:23.079Z,102881.94
2019-02-23T00:35:26.574Z,102876.16
2019-02-23T00:36:30.067Z,102879.45
2019-02-23T00:37:33.567Z,102876.70
2019-02-23T00:38:37.138Z,102879.45
2019-02-23T00:39:40.636Z,102878.63
2019-02-23T00:40:44.143Z,102876.42
2019-02-23T00:41:47.641Z,102881.66
2019-02-23T00:42:51.151Z,102876.15
2019-02-23T00:43:54.667Z,102868.98
2019-02-23T00:44:58.161Z,102867.61
2019-02-23T00:46:01.663Z,102870.36
2019-02-23T00:47:05.216Z,102868.16
2019-02-23T00:48:08.712Z,102867.85
2019-02-23T00:49:12.312Z,102864.27
2019-02-23T00:50:15.814Z,102866.47
2019-02-23T00:51:19.306Z,102866.20
2019-02-23T00:52:22.858Z,102865.37
2019-02-23T00:53:26.353Z,102869.50
2019-02-23T00:54:29.874Z,102869.77
2019-02-23T00:55:33.425Z,102865.09
2019-02-23T00:56:36.996Z,102865.64
2019-02-23T00:57:40.486Z,102866.19
2019-02-23T00:58:43.983Z,102873.08
2019-02-23T00:59:47.509Z,102868.39
2019-02-23T01:00:50.997Z,102868.94
2019-02-23T01:01:54.494Z,102872.52
2019-02-23T01:02:57.984Z,102873.08
2019-02-23T01:04:01.493Z,102871.97
2019-02-23T01:05:05.429Z,102872.80
2019-02-23T01:06:08.926Z,102872.80
2019-02-23T01:07:12.566Z,102869.77
2019-02-23T01:08:16.142Z,102875.55
2019-02-23T01:09:19.653Z,102876.10
2019-02-23T01:10:23.181Z,102868.39
2019-02-23T01:11:26.747Z,102877.48
2019-02-23T01:12:30.302Z,102873.90
2019-02-23T01:13:33.890Z,102874.73
2019-02-23T01:14:37.458Z,102878.03
2019-02-23T01:15:41.102Z,102877.20
2019-02-23T01:16:44.595Z,102874.45
2019-02-23T01:17:48.269Z,102873.90
2019-02-23T01:18:51.888Z,102875.00
2019-02-23T01:19:55.391Z,102871.98
2019-02-23T01:20:59.033Z,102873.66
2019-02-23T01:22:02.530Z,102872.29
2019-02-23T01:23:06.166Z,102867.06
2019-02-23T01:24:09.660Z,102872.81
2019-02-23T01:25:13.389Z,102873.66
2019-02-23T01:26:16.980Z,102872.53
2019-02-23T01:27:20.469Z,102874.45
2019-02-23T01:28:23.985Z,102872.53
2019-02-23T01:29:27.465Z,102873.91
2019-02-23T01:30:30.952Z,102869.77
2019-02-23T01:31:34.554Z,102868.95
2019-02-23T01:32:38.041Z,102868.68
2019-02-23T01:33:41.537Z,102868.41
2019-02-23T01:34:45.096Z,102864.03
2019-02-23T01:35:48.728Z,102866.47
2019-02-23T01:36:52.249Z,102864.27
2019-02-23T01:37:55.747Z,102867.02
2019-02-23T01:38:59.244Z,102867.85
2019-02-23T01:40:02.971Z,102866.47
2019-02-23T01:41:06.597Z,102870.87
2019-02-23T01:42:10.188Z,102870.05
2019-02-23T01:43:13.922Z,102873.08
2019-02-23T01:44:17.419Z,102869.77
2019-02-23T01:45:20.989Z,102873.90
2019-02-23T01:46:24.480Z,102870.87
2019-02-23T01:47:28.000Z,102866.46
2019-02-23T01:48:31.560Z,102862.88
2019-02-23T01:49:35.051Z,102867.01
2019-02-23T01:50:38.556Z,102867.01
2019-02-23T01:51:42.138Z,102871.69
2019-02-23T01:52:45.651Z,102872.23
2019-02-23T01:53:49.158Z,102876.37
2019-02-23T01:54:52.664Z,102874.44
2019-02-23T01:55:56.215Z,102877.19
2019-02-23T01:56:59.880Z,102879.40
2019-02-23T01:58:03.536Z,102871.38
2019-02-23T01:59:07.025Z,102875.54
2019-02-23T02:00:12.755Z,102876.91
2019-02-23T02:01:16.276Z,102878.02
2019-02-23T02:02:19.907Z,102884.34
2019-02-23T02:03:23.568Z,102881.31
2019-02-23T02:04:27.137Z,102884.06
2019-02-23T02:05:30.635Z,102881.31
2019-02-23T02:06:34.206Z,102885.69
2019-02-23T02:07:37.776Z,102882.10
2019-02-23T02:08:41.471Z,102876.59
2019-02-23T02:09:45.231Z,102875.49
2019-02-23T02:10:48.897Z,102883.48
2019-02-23T02:11:52.464Z,102884.03
2019-02-23T02:12:56.099Z,102886.23
2019-02-23T02:13:59.678Z,102890.08
2019-02-23T02:15:03.570Z,102886.50
2019-02-23T02:16:07.070Z,102884.02
2019-02-23T02:17:10.564Z,102884.84
2019-02-23T02:18:14.050Z,102881.27
2019-02-23T02:19:17.642Z,102882.33
2019-02-23T02:20:21.215Z,102878.52
2019-02-23T02:21:24.688Z,102883.16
2019-02-23T02:22:29.896Z,102882.88
2019-02-23T02:23:33.387Z,102882.05
2019-02-23T02:24:36.902Z,102880.68
2019-02-23T02:25:40.467Z,102880.41
2019-02-23T02:26:43.961Z,102881.78
2019-02-23T02:27:47.524Z,102885.08
2019-02-23T02:28:51.066Z,102881.22
2019-02-23T02:29:54.577Z,102886.45
2019-02-23T02:30:58.193Z,102884.52
2019-02-23T02:32:01.825Z,102880.66
2019-02-23T02:33:05.384Z,102873.50
2019-02-23T02:34:13.953Z,102877.63
2019-02-23T02:35:17.445Z,102871.57
2019-02-23T02:36:21.011Z,102869.37
2019-02-23T02:37:24.591Z,102867.71
2019-02-23T02:38:28.141Z,102874.59
2019-02-23T02:39:31.688Z,102875.14
2019-02-23T02:40:35.238Z,102875.14
2019-02-23T02:41:38.716Z,102876.52
2019-02-23T02:42:42.272Z,102869.63
2019-02-23T02:43:45.760Z,102872.11
2019-02-23T02:44:49.259Z,102866.33
2019-02-23T02:45:52.910Z,102865.78
2019-02-23T02:46:56.389Z,102863.27
2019-02-23T02:48:00.025Z,102866.02
2019-02-23T02:49:03.658Z,102875.96
2019-02-23T02:50:08.993Z,102870.45
2019-02-23T02:51:12.507Z,102868.77
2019-02-23T02:52:16.082Z,102871.52
2019-02-23T02:53:19.628Z,102866.87
2019-02-23T02:54:23.190Z,102863.81
2019-02-23T02:55:26.682Z,102871.83
2019-02-23T02:56:30.329Z,102868.77
2019-02-23T02:57:33.898Z,102871.79
2019-02-23T02:58:37.463Z,102867.11
2019-02-23T02:59:41.026Z,102873.72
2019-02-23T03:00:44.573Z,102867.66
2019-02-23T03:01:48.231Z,102874.54
2019-02-23T03:02:51.806Z,102871.52
2019-02-23T03:03:55.420Z,102872.34
2019-02-23T03:04:58.971Z,102877.56
2019-02-23T03:06:02.483Z,102872.89
2019-02-23T03:07:06.127Z,102866.28
2019-02-23T03:08:09.709Z,102871.79
2019-02-23T03:09:13.230Z,102870.41
2019-02-23T03:10:16.774Z,102874.54
2019-02-23T03:11:20.358Z,102870.69
2019-02-23T03:12:23.929Z,102866.55
2019-02-23T03:13:27.477Z,102872.06
2019-02-23T03:14:31.055Z,102864.63
2019-02-23T03:15:34.675Z,102866.00
2019-02-23T03:16:38.257Z,102864.63
2019-02-23T03:17:41.786Z,102862.69
2019-02-23T03:18:45.397Z,102862.97
2019-02-23T03:19:48.899Z,102860.22
2019-02-23T03:20:52.513Z,102856.09
2019-02-23T03:21:56.065Z,102860.22
2019-02-23T03:22:59.605Z,102855.81
2019-02-23T03:24:03.219Z,102860.77
2019-02-23T03:25:07.463Z,102861.31
2019-02-23T03:26:10.963Z,102855.53
2019-02-23T03:27:14.439Z,102857.19
2019-02-23T03:28:18.046Z,102861.58
2019-02-23T03:29:21.537Z,102859.38
2019-02-23T03:30:25.015Z,102864.05
2019-02-23T03:31:28.665Z,102859.38
2019-02-23T03:32:32.216Z,102866.80
2019-02-23T03:33:35.743Z,102865.16
2019-02-23T03:34:39.240Z,102863.50
2019-02-23T03:35:42.848Z,102864.33
2019-02-23T03:36:46.352Z,102863.22
2019-02-23T03:37:49.823Z,102862.39
2019-02-23T03:38:53.319Z,102864.86
2019-02-23T03:39:56.847Z,102864.55
2019-02-23T03:41:00.305Z,102866.75
2019-02-23T03:42:04.050Z,102860.42
2019-02-23T03:43:07.626Z,102865.65
2019-02-23T03:44:11.207Z,102864.27
2019-02-23T03:45:14.787Z,102864.27
2019-02-23T03:46:18.268Z,102862.89
2019-02-23T03:47:21.755Z,102862.62
2019-02-23T03:48:25.260Z,102861.79
2019-02-23T03:49:28.768Z,102860.96
2019-02-23T03:50:32.276Z,102862.06
2019-02-23T03:51:35.784Z,102859.30
2019-02-23T03:52:39.345Z,102855.73
2019-02-23T03:53:42.845Z,102859.30
2019-02-23T03:54:46.348Z,102862.06
2019-02-23T03:55:49.887Z,102861.78
2019-02-23T03:56:53.471Z,102861.23
2019-02-23T03:57:56.948Z,102861.23
2019-02-23T03:59:00.456Z,102863.16
2019-02-23T04:00:04.418Z,102859.03
2019-02-23T04:01:07.903Z,102866.73
2019-02-23T04:02:11.416Z,102865.91
2019-02-23T04:03:14.897Z,102865.91
2019-02-23T04:04:18.408Z,102861.50
2019-02-23T04:05:21.959Z,102863.97
2019-02-23T04:06:25.486Z,102860.94
2019-02-23T04:07:28.987Z,102863.97
2019-02-23T04:08:32.561Z,102852.12
2019-02-23T04:09:36.038Z,102858.19
2019-02-23T04:10:39.573Z,102851.86
2019-02-23T04:11:43.116Z,102853.23
2019-02-23T04:12:46.599Z,102853.78
2019-02-23T04:13:50.111Z,102863.41
2019-02-23T04:14:53.716Z,102859.55
2019-02-23T04:15:57.262Z,102866.17
2019-02-23T04:17:00.768Z,102868.38
2019-02-23T04:18:04.384Z,102864.52
2019-02-23T04:19:07.963Z,102865.09
2019-02-23T04:20:11.579Z,102871.43
2019-02-23T04:21:15.226Z,102864.86
2019-02-23T04:22:18.733Z,102872.30
2019-02-23T04:23:22.217Z,102874.52
2019-02-23T04:24:25.725Z,102874.53
2019-02-23T04:25:29.298Z,102874.53
2019-02-23T04:26:32.827Z,102878.95
2019-02-23T04:27:36.412Z,102880.64
2019-02-23T04:28:39.956Z,102883.95
2019-02-23T04:29:46.803Z,102884.23
2019-02-23T04:30:48.733Z,102885.07
2019-02-23T04:31:52.230Z,102892.23
2019-02-23T04:32:55.753Z,102890.35
2019-02-23T04:33:59.261Z,102888.98
2019-02-23T04:35:02.734Z,102898.94
2019-02-23T04:36:06.314Z,102889.30
2019-02-23T04:37:09.925Z,102896.74
2019-02-23T04:38:13.395Z,102893.17
2019-02-23T04:39:16.909Z,102896.75
2019-02-23T04:40:20.521Z,102895.38
2019-02-23T04:41:24.037Z,102899.78
2019-02-23T04:42:27.557Z,102906.16
2019-02-23T04:43:31.041Z,102903.41
2019-02-23T04:44:34.621Z,102908.63
2019-02-23T04:45:38.105Z,102907.54
2019-02-23T04:46:41.594Z,102905.61
2019-02-23T04:47:45.187Z,102910.30
2019-02-23T04:48:48.658Z,102907.83
2019-02-23T04:49:54.303Z,102909.48
2019-02-23T04:50:57.821Z,102915.27
2019-02-23T04:52:01.382Z,102917.19
2019-02-23T04:53:04.996Z,102911.97
2019-02-23T04:54:08.530Z,102925.73
2019-02-23T04:55:12.152Z,102927.94
2019-02-23T04:56:15.667Z,102919.13
2019-02-23T04:57:19.283Z,102924.64
2019-02-23T04:58:22.809Z,102924.64
2019-02-23T04:59:26.313Z,102917.19
2019-02-23T05:00:29.885Z,102924.63
2019-02-23T05:01:33.465Z,102926.83
2019-02-23T05:02:37.013Z,102922.14
2019-02-23T05:03:40.589Z,102927.93
2019-02-23T05:04:44.094Z,102927.38
2019-02-23T05:05:47.711Z,102928.20
2019-02-23T05:06:51.254Z,102921.88
2019-02-23T05:07:54.736Z,102928.77
2019-02-23T05:08:58.306Z,102921.37
2019-02-23T05:10:01.879Z,102923.03
2019-02-23T05:11:05.430Z,102934.87
2019-02-23T05:12:08.976Z,102931.29
2019-02-23T05:13:12.615Z,102931.01
2019-02-23T05:14:16.197Z,102933.22
2019-02-23T05:15:19.703Z,102935.42
2019-02-23T05:16:23.213Z,102933.49
2019-02-23T05:17:26.830Z,102935.97
2019-02-23T05:18:30.324Z,102930.70
2019-02-23T05:19:33.912Z,102938.96
2019-02-23T05:20:37.412Z,102931.80
2019-02-23T05:21:40.923Z,102935.65
2019-02-23T05:22:44.491Z,102935.37
2019-02-23T05:23:47.999Z,102933.72
2019-02-23T05:24:53.486Z,102929.86
2019-02-23T05:25:56.739Z,102938.12
2019-02-23T05:27:00.306Z,102930.41
2019-02-23T05:28:03.861Z,102932.06
2019-02-23T05:29:07.354Z,102934.53
2019-02-23T05:30:12.432Z,102931.23
2019-02-23T05:31:15.881Z,102929.05
2019-02-23T05:32:19.385Z,102929.32
2019-02-23T05:33:22.952Z,102935.97
2019-02-23T05:34:26.444Z,102929.62
2019-02-23T05:35:29.975Z,102929.62
2019-02-23T05:36:33.477Z,102926.88
2019-02-23T05:37:36.963Z,102936.52
2019-02-23T05:38:40.453Z,102930.19
2019-02-23T05:39:43.947Z,102935.42
2019-02-23T05:40:47.452Z,102932.66
2019-02-23T05:41:51.006Z,102928.81
2019-02-23T05:43:00.917Z,102929.62
2019-02-23T05:43:59.927Z,102929.08
2019-02-23T05:45:03.740Z,102930.46
2019-02-23T05:46:07.285Z,102931.01
2019-02-23T05:47:10.789Z,102929.62
2019-02-23T05:48:15.940Z,102928.80
2019-02-23T05:49:19.414Z,102929.32
2019-02-23T05:50:22.902Z,102930.42
2019-02-23T05:51:38.104Z,102938.41
2019-02-23T05:52:31.675Z,102942.53
2019-02-23T05:53:35.161Z,102936.47
2019-02-23T05:54:38.647Z,102934.53
2019-02-23T05:55:42.162Z,102937.56
2019-02-23T05:56:45.699Z,102937.56
2019-02-23T05:57:49.206Z,102941.98
2019-02-23T05:58:52.701Z,102942.26
2019-02-23T05:59:56.248Z,102945.56
2019-02-23T06:00:59.841Z,102946.16
2019-02-23T06:02:03.436Z,102948.36
2019-02-23T06:03:06.990Z,102952.48
2019-02-23T06:04:10.500Z,102951.11
2019-02-23T06:05:14.131Z,102944.78
2019-02-23T06:06:17.668Z,102948.91
2019-02-23T06:07:21.190Z,102958.23
2019-02-23T06:08:24.753Z,102955.48
2019-02-23T06:09:28.248Z,102955.48
2019-02-23T06:10:31.765Z,102953.00
2019-02-23T06:11:35.250Z,102959.88
2019-02-23T06:12:38.829Z,102964.01
2019-02-23T06:13:42.351Z,102957.12
2019-02-23T06:14:45.853Z,102959.88
2019-02-23T06:15:49.349Z,102965.67
2019-02-23T06:16:52.957Z,102964.60
2019-02-23T06:17:56.507Z,102959.11
2019-02-23T06:19:00.201Z,102963.80
2019-02-23T06:20:04.168Z,102961.03
2019-02-23T06:21:07.744Z,102964.63
2019-02-23T06:22:11.240Z,102961.31
2019-02-23T06:23:14.769Z,102964.34
2019-02-23T06:24:18.266Z,102958.56
2019-02-23T06:25:21.764Z,102963.25
2019-02-23T06:26:25.269Z,102962.69
2019-02-23T06:27:28.769Z,102965.99
2019-02-23T06:28:32.293Z,102961.59
2019-02-23T06:29:35.790Z,102959.93
2019-02-23T06:30:39.294Z,102972.87
2019-02-23T06:31:42.788Z,102968.74
2019-02-23T06:32:46.276Z,102968.19
2019-02-23T06:33:49.794Z,102966.55
2019-02-23T06:34:53.286Z,102966.28
2019-02-23T06:35:56.795Z,102964.91
2019-02-23T06:37:00.277Z,102967.39
2019-02-23T06:38:03.841Z,102970.19
2019-02-23T06:39:07.369Z,102967.16
2019-02-23T06:40:11.699Z,102967.16
2019-02-23T06:41:18.036Z,102979.00
2019-02-23T06:42:21.531Z,102976.20
2019-02-23T06:43:25.086Z,102980.61
2019-02-23T06:44:28.607Z,102992.17
2019-02-23T06:45:32.232Z,102985.00
2019-02-23T06:46:35.853Z,102991.61
2019-02-23T06:47:39.357Z,102991.89
2019-02-23T06:48:42.857Z,102993.81
2019-02-23T06:49:46.461Z,102991.33
2019-02-23T06:50:50.095Z,102993.53
2019-02-23T06:52:04.076Z,102995.72
2019-02-23T06:52:58.950Z,102999.55
2019-02-23T06:54:02.447Z,102991.82
2019-02-23T06:55:07.241Z,102993.47
2019-02-23T06:56:10.793Z,102990.16
2019-02-23T06:57:14.286Z,102990.42
2019-02-23T06:58:17.861Z,102989.59
2019-02-23T06:59:21.364Z,102998.07
2019-02-23T07:00:25.006Z,103002.47
2019-02-23T07:01:28.495Z,102997.77
2019-02-23T07:02:32.062Z,103000.73
2019-02-23T07:03:35.637Z,102997.61
2019-02-23T07:04:39.216Z,102984.88
2019-02-23T07:05:42.800Z,102994.73
2019-02-23T07:06:46.376Z,102989.66
2019-02-23T07:07:49.883Z,102990.89
2019-02-23T07:08:53.458Z,102992.14
2019-02-23T07:09:56.946Z,102990.19
2019-02-23T07:11:00.546Z,102991.79
2019-02-23T07:12:04.105Z,102991.77
2019-02-23T07:13:07.597Z,102988.43
2019-02-23T07:14:11.228Z,102989.19
2019-02-23T07:15:14.865Z,102992.14
2019-02-23T07:16:18.406Z,102994.25
2019-02-23T07:17:21.902Z,102991.95
2019-02-23T07:18:25.407Z,102984.20
2019-02-23T07:19:29.034Z,102988.06
2019-02-23T07:20:43.442Z,102993.30
2019-02-23T07:21:37.821Z,102988.94
2019-02-23T07:22:41.327Z,102984.81
2019-02-23T07:23:44.823Z,102983.23
2019-02-23T07:24:48.328Z,102985.70
2019-02-23T07:25:51.892Z,102985.36
2019-02-23T07:26:55.434Z,102984.25
2019-02-23T07:27:58.969Z,102982.02
2019-02-23T07:29:02.435Z,102982.00
2019-02-23T07:30:13.863Z,102983.00
2019-02-23T07:31:17.453Z,102987.05
2019-02-23T07:32:20.968Z,102977.44
2019-02-23T07:33:32.904Z,102982.41
2019-02-23T07:34:29.693Z,102981.06
2019-02-23T07:35:33.210Z,102974.56
2019-02-23T07:36:36.876Z,102972.41
2019-02-23T07:37:40.519Z,102968.61
2019-02-23T07:38:44.095Z,102972.30
2019-02-23T07:39:47.638Z,102973.45
2019-02-23T07:40:51.183Z,102972.18
2019-02-23T07:41:54.762Z,102974.42
2019-02-23T07:42:58.371Z,102977.76
2019-02-23T07:44:03.473Z,102972.31
2019-02-23T07:45:09.119Z,102977.02
2019-02-23T07:46:12.664Z,102975.38
2019-02-23T07:47:16.175Z,102969.64
2019-02-23T07:48:19.761Z,102978.22
2019-02-23T07:49:23.244Z,102971.91
2019-02-23T07:50:26.751Z,102978.26
2019-02-23T07:51:30.308Z,102976.62
2019-02-23T07:52:33.812Z,102975.52
2019-02-23T07:53:37.367Z,102971.96
2019-02-23T07:54:40.818Z,102969.49
2019-02-23T07:55:44.336Z,102972.52
2019-02-23T07:56:47.813Z,102970.06
2019-02-23T07:57:51.389Z,102970.34
2019-02-23T07:58:54.922Z,102958.51
2019-02-23T07:59:58.402Z,102963.78
2019-02-23T08:01:01.980Z,102972.59
2019-02-23T08:02:05.593Z,102969.56
2019-02-23T08:03:09.048Z,102967.92
2019-02-23T08:04:12.570Z,102969.30
2019-02-23T08:05:16.045Z,102963.25
2019-02-23T08:06:19.599Z,102956.65
2019-02-23T08:07:23.114Z,102958.86
2019-02-23T08:08:26.650Z,102953.90
2019-02-23T08:09:30.162Z,102959.41
2019-02-23T08:10:33.735Z,102959.41
2019-02-23T08:11:37.291Z,102964.36
2019-02-23T08:12:40.806Z,102965.19
2019-02-23T08:13:44.305Z,102960.23
2019-02-23T08:14:48.102Z,102964.36
2019-02-23T08:15:51.625Z,102959.95
2019-02-23T08:16:55.129Z,102964.91
2019-02-23T08:17:58.688Z,102957.75
2019-02-23T08:19:02.340Z,102964.91
2019-02-23T08:20:08.522Z,102959.13
2019-02-23T08:21:12.034Z,102969.58
2019-02-23T08:22:15.515Z,102959.95
2019-02-23T08:23:19.033Z,102960.50
2019-02-23T08:24:22.549Z,102961.59
2019-02-23T08:25:26.056Z,102961.87
2019-02-23T08:26:29.629Z,102953.62
2019-02-23T08:27:33.123Z,102963.25
2019-02-23T08:28:36.607Z,102952.24
2019-02-23T08:29:40.115Z,102949.49
2019-02-23T08:30:43.625Z,102948.95
2019-02-23T08:31:47.114Z,102944.54
2019-02-23T08:32:50.640Z,102942.34
2019-02-23T08:33:54.262Z,102940.41
2019-02-23T08:34:57.785Z,102941.79
2019-02-23T08:36:01.402Z,102943.99
2019-02-23T08:37:05.105Z,102941.79
2019-02-23T08:38:08.614Z,102941.51
2019-02-23T08:39:12.163Z,102943.71
2019-02-23T08:40:17.084Z,102942.62
2019-02-23T08:41:20.707Z,102939.58
2019-02-23T08:42:24.265Z,102936.84
2019-02-23T08:43:27.756Z,102932.16
2019-02-23T08:44:31.277Z,102932.98
2019-02-23T08:45:34.754Z,102927.48
2019-02-23T08:46:38.272Z,102934.36
2019-02-23T08:47:41.842Z,102937.66
2019-02-23T08:48:45.348Z,102940.41
2019-02-23T08:49:51.885Z,102945.37
2019-02-23T08:50:55.586Z,102943.45
2019-02-23T08:51:59.171Z,102941.24
2019-02-23T08:53:02.683Z,102946.20
2019-02-23T08:54:06.755Z,102943.45
2019-02-23T08:55:10.859Z,102943.45
2019-02-23T08:56:14.346Z,102937.94
2019-02-23T08:57:17.873Z,102935.73
2019-02-23T08:58:21.522Z,102946.20
2019-02-23T08:59:25.048Z,102939.60
2019-02-23T09:00:28.600Z,102940.41
2019-02-23T09:01:32.096Z,102938.77
2019-02-23T09:02:35.744Z,102940.15
2019-02-23T09:03:39.288Z,102939.05
2019-02-23T09:04:42.757Z,102939.88
2019-02-23T09:05:46.270Z,102944.01
2019-02-23T09:06:49.841Z,102948.68
2019-02-23T09:07:53.362Z,102942.34
2019-02-23T09:08:56.855Z,102940.70
2019-02-23T09:10:00.400Z,102933.83
2019-02-23T09:11:03.963Z,102942.08
2019-02-23T09:12:07.464Z,102937.96
2019-02-23T09:13:10.965Z,102945.95
2019-02-23T09:14:14.509Z,102943.74
2019-02-23T09:15:18.003Z,102940.99
2019-02-23T09:16:21.505Z,102949.80
2019-02-23T09:17:25.010Z,102946.22
2019-02-23T09:18:28.541Z,102947.59
2019-02-23T09:19:32.062Z,102952.84
2019-02-23T09:20:35.557Z,102950.36
2019-02-23T09:21:39.093Z,102945.95
2019-02-23T09:22:42.706Z,102942.66
2019-02-23T09:23:46.322Z,102942.39
2019-02-23T09:24:49.807Z,102946.52
2019-02-23T09:25:53.373Z,102945.97
2019-02-23T09:26:56.865Z,102939.92
2019-02-23T09:28:00.394Z,102941.30
2019-02-23T09:29:04.013Z,102940.47
2019-02-23T09:30:16.649Z,102938.55
2019-02-23T09:31:20.290Z,102940.20
2019-02-23T09:32:23.866Z,102934.70
2019-02-23T09:33:27.350Z,102935.53
2019-02-23T09:34:30.948Z,102938.28
2019-02-23T09:35:34.608Z,102933.64
2019-02-23T09:36:38.147Z,102936.39
2019-02-23T09:37:41.642Z,102931.45
2019-02-23T09:38:45.216Z,102929.24
2019-02-23T09:39:48.803Z,102936.13
2019-02-23T09:40:52.296Z,102930.08
2019-02-23T09:41:55.788Z,102927.32
2019-02-23T09:42:59.288Z,102922.91
2019-02-23T09:44:02.795Z,102931.19
2019-02-23T09:45:08.937Z,102930.35
2019-02-23T09:46:12.446Z,102930.90
2019-02-23T09:47:16.025Z,102927.32
2019-02-23T09:48:19.541Z,102932.27
2019-02-23T09:49:23.038Z,102935.86
2019-02-23T09:50:26.539Z,102939.16
2019-02-23T09:51:30.067Z,102937.78
2019-02-23T09:52:33.571Z,102936.67
2019-02-23T09:53:37.127Z,102935.86
2019-02-23T09:54:40.650Z,102930.63
2019-02-23T09:55:44.234Z,102934.22
2019-02-23T09:56:47.730Z,102930.63
2019-02-23T09:57:51.614Z,102932.84
2019-02-23T09:58:55.565Z,102934.76
2019-02-23T09:59:59.374Z,102937.52
2019-02-23T10:01:03.030Z,102926.51
2019-02-23T10:02:07.595Z,102940.00
2019-02-23T10:03:11.606Z,102943.58
2019-02-23T10:04:15.582Z,102944.95
2019-02-23T10:05:19.406Z,102943.58
2019-02-23T10:06:23.103Z,102943.31
2019-02-23T10:07:26.988Z,102944.69
2019-02-23T10:08:30.633Z,102940.29
2019-02-23T10:09:34.141Z,102946.62
2019-02-23T10:10:37.717Z,102942.77
2019-02-23T10:11:41.468Z,102940.85
2019-02-23T10:12:45.100Z,102929.56
2019-02-23T10:13:49.872Z,102932.31
2019-02-23T10:14:53.895Z,102929.84
2019-02-23T10:15:57.512Z,102932.88
2019-02-23T10:17:01.117Z,102930.41
2019-02-23T10:18:04.783Z,102931.50
2019-02-23T10:19:08.336Z,102934.81
2019-02-23T10:20:14.042Z,102933.98
2019-02-23T10:21:17.527Z,102934.30
2019-02-23T10:22:21.032Z,102936.50
2019-02-23T10:23:25.255Z,102928.80
2019-02-23T10:24:28.721Z,102926.04
2019-02-23T10:25:32.314Z,102932.10
2019-02-23T10:26:35.819Z,102935.41
2019-02-23T10:27:39.324Z,102934.86
2019-02-23T10:28:42.828Z,102928.81
2019-02-23T10:29:46.344Z,102934.33
2019-02-23T10:30:49.792Z,102928.83
2019-02-23T10:31:53.304Z,102932.70
2019-02-23T10:32:56.800Z,102929.67
2019-02-23T10:34:00.314Z,102923.62
2019-02-23T10:35:03.954Z,102928.34
2019-02-23T10:36:07.425Z,102926.41
2019-02-23T10:37:10.938Z,102928.34
2019-02-23T10:38:14.441Z,102926.97
2019-02-23T10:39:17.988Z,102925.05
2019-02-23T10:40:21.569Z,102930.31
2019-02-23T10:41:25.050Z,102929.77
2019-02-23T10:42:28.573Z,102930.05
2019-02-23T10:43:32.087Z,102930.88
2019-02-23T10:44:35.586Z,102933.08
2019-02-23T10:45:39.132Z,102929.23
2019-02-23T10:46:42.633Z,102928.13
2019-02-23T10:47:46.088Z,102918.77
2019-02-23T10:48:49.652Z,102926.75
2019-02-23T10:49:53.209Z,102930.88
2019-02-23T10:50:56.712Z,102922.63
2019-02-23T10:52:00.305Z,102928.95
2019-02-23T10:53:03.857Z,102927.31
2019-02-23T10:54:07.649Z,102921.80
2019-02-23T10:55:12.764Z,102915.75
2019-02-23T10:56:16.240Z,102917.95
2019-02-23T10:57:19.770Z,102915.20
2019-02-23T10:58:23.265Z,102916.58
2019-02-23T10:59:26.768Z,102909.14
2019-02-23T11:00:30.457Z,102915.20
2019-02-23T11:01:34.077Z,102906.94
2019-02-23T11:02:37.687Z,102911.07
2019-02-23T11:03:41.271Z,102908.31
2019-02-23T11:04:44.873Z,102912.45
2019-02-23T11:05:48.363Z,102908.04
2019-02-23T11:06:51.937Z,102896.20
2019-02-23T11:07:55.611Z,102902.53
2019-02-23T11:08:59.327Z,102901.16
2019-02-23T11:10:03.111Z,102896.75
2019-02-23T11:11:06.892Z,102890.97
2019-02-23T11:12:10.542Z,102902.25
2019-02-23T11:13:14.038Z,102900.87
2019-02-23T11:14:17.599Z,102904.17
2019-02-23T11:15:22.079Z,102898.39
2019-02-23T11:16:25.698Z,102899.77
2019-02-23T11:17:29.331Z,102896.73
2019-02-23T11:18:32.867Z,102902.79
2019-02-23T11:19:36.466Z,102899.20
2019-02-23T11:20:40.125Z,102898.63
2019-02-23T11:21:43.713Z,102897.02
2019-02-23T11:22:47.285Z,102903.61
2019-02-23T11:23:50.800Z,102898.90
2019-02-23T11:24:54.428Z,102896.69
2019-02-23T11:25:58.085Z,102900.27
2019-02-23T11:27:01.768Z,102896.69
2019-02-23T11:28:05.507Z,102895.59
2019-02-23T11:29:09.229Z,102890.64
2019-02-23T11:30:15.048Z,102892.84
2019-02-23T11:31:18.660Z,102890.64
2019-02-23T11:32:22.312Z,102887.65
2019-02-23T11:33:25.804Z,102882.69
2019-02-23T11:34:29.342Z,102878.80
2019-02-23T11:35:32.903Z,102882.69
2019-02-23T11:36:36.500Z,102879.62
2019-02-23T11:37:40.029Z,102878.56
2019-02-23T11:38:43.540Z,102877.70
2019-02-23T11:39:47.040Z,102875.50
2019-02-23T11:40:50.551Z,102876.88
2019-02-23T11:41:54.163Z,102875.50
2019-02-23T11:42:57.719Z,102874.95
2019-02-23T11:44:01.227Z,102874.44
2019-02-23T11:45:05.966Z,102871.69
2019-02-23T11:46:09.505Z,102868.62
2019-02-23T11:47:13.270Z,102868.93
2019-02-23T11:48:16.814Z,102874.44
2019-02-23T11:49:20.360Z,102867.00
2019-02-23T11:50:23.980Z,102861.73
2019-02-23T11:51:27.473Z,102858.75
2019-02-23T11:52:31.042Z,102864.53
2019-02-23T11:53:34.602Z,102857.37
2019-02-23T11:54:38.158Z,102862.06
2019-02-23T11:55:41.689Z,102859.31
2019-02-23T11:56:45.349Z,102853.52
2019-02-23T11:57:48.983Z,102852.42
2019-02-23T11:58:52.631Z,102850.50
2019-02-23T11:59:56.324Z,102852.42
2019-02-23T12:00:59.839Z,102847.20
2019-02-23T12:02:03.455Z,102845.27
2019-02-23T12:03:07.063Z,102846.09
2019-02-23T12:04:10.660Z,102839.22
2019-02-23T12:05:14.342Z,102841.70
2019-02-23T12:06:17.840Z,102838.43